ADDS METAR Data INFO
IDs: Format: Raw Decoded Include TAF

Data at: 0212 UTC 14 Dec 2017

KCIU 140156Z AUTO 02006KT 10SM CLR M17/M19 A2972 RMK AO2 SLP095 T11721194 FZRANO PNO $
KCIU 140056Z AUTO 04006KT 10SM CLR M17/M19 A2971 RMK AO2 SLP092 T11721194 FZRANO PNO $
KCIU 132356Z AUTO 01006KT 10SM CLR M17/M20 A2970 RMK AO2 SLP086 6//// T11721200 11139 21172 53022 FZRANO PNO $
KCIU 132256Z AUTO 02005KT 10SM CLR M17/M19 A2967 RMK AO2 SLP078 T11671189 FZRANO PNO $
KCIU 132156Z AUTO 04006KT 10SM CLR M16/M18 A2965 RMK AO2 SLP067 T11561183 FZRANO PNO $
KCIU 132056Z AUTO 06006KT 10SM CLR M14/M18 A2963 RMK AO2 SLP064 6//// T11441178 56014 FZRANO PNO $
KCIU 131956Z AUTO 07007KT 10SM CLR M14/M18 A2963 RMK AO2 SLP063 T11441183 FZRANO PNO $
KCIU 131856Z AUTO 08008KT 10SM CLR M15/M19 A2965 RMK AO2 SLP069 T11501194 FZRANO PNO $
KCIU 131756Z AUTO 07005KT 10SM CLR M15/M19 A2967 RMK AO2 SLP077 6//// T11501194 11150 21228 58021 FZRANO PNO $
KCIU 131656Z AUTO 06004KT 10SM CLR M16/M21 A2970 RMK AO2 SLP089 T11611206 FZRANO PNO $
KCIU 131556Z AUTO 07005KT 10SM CLR M18/M22 A2973 RMK AO2 SLP096 T11831222 FZRANO PNO $
KCIU 131456Z AUTO 08006KT 10SM CLR M21/M24 A2974 RMK AO2 SLP099 6//// T12061239 58007 FZRANO PNO $
KCIU 131423Z AUTO 08008KT 10SM CLR M22/M24 A2974 RMK AO2 FZRANO PNO $
KCIU 131413Z AUTO 08008KT 1 3/4SM BR CLR M22/M24 A2974 RMK AO2 FZRANO PNO $
KCIU 131356Z AUTO 08009KT 10SM CLR M22/M24 A2974 RMK AO2 SLP102 T12221244 FZRANO PNO $
KCIU 131256Z AUTO 09006KT 10SM CLR M23/M25 A2976 RMK AO2 SLP109 T12281250 FZRANO PNO $
KCIU 131156Z AUTO 08008KT 10SM CLR M22/M24 A2976 RMK AO2 SLP106 6//// 7//// T12221244 11194 21233 58016 FZRANO PNO $
KCIU 131056Z AUTO 08006KT 10SM SCT017 M23/M25 A2977 RMK AO2 SNE0959 SLP111 T12281250 FZRANO PNO $
KCIU 131013Z AUTO 05005KT 10SM BKN017 M22/M24 A2979 RMK AO2 SNE0959 FZRANO PNO $
KCIU 131006Z AUTO 05005KT 10SM SCT017 M22/M23 A2979 RMK AO2 SNE0959 FZRANO PNO $
KCIU 130956Z AUTO 06003KT 9SM -SN BKN015 M22/M24 A2980 RMK AO2 SLP121 T12171239 FZRANO PNO $
KCIU 130856Z AUTO 00000KT 10SM -SN FEW006 OVC015 M21/M23 A2981 RMK AO2 SNB53 SLP123 6//// T12111228 56007 FZRANO PNO $
KCIU 130849Z AUTO 00000KT 10SM SCT006 OVC017 M21/M23 A2981 RMK AO2 FZRANO PNO $
KCIU 130756Z AUTO 07004KT 10SM BKN008 OVC013 M21/M23 A2982 RMK AO2 CIG 006V011 SLP125 T12061228 FZRANO PNO $
KCIU 130656Z AUTO 09005KT 10SM OVC007 M20/M22 A2981 RMK AO2 SLP124 T12001222 FZRANO PNO $
KCIU 130556Z AUTO 05006KT 10SM OVC007 M19/M22 A2983 RMK AO2 SLP131 6//// T11941222 11178 21200 56014 FZRANO PNO $
KCIU 130456Z AUTO 04004KT 10SM OVC007 M20/M23 A2984 RMK AO2 SLP135 T12001228 410671200 FZRANO PNO $
KCIU 130356Z AUTO 04007KT 10SM BKN007 M20/M23 A2986 RMK AO2 SLP142 T12001228 FZRANO PNO $
KCIU 130338Z AUTO 04007KT 10SM FEW007 M20/M23 A2987 RMK AO2 FZRANO PNO $
KCIU 130256Z AUTO 04007KT 10SM CLR M19/M22 A2987 RMK AO2 SLP147 6//// T11941222 58006 FZRANO PNO $
KCIU 130206Z AUTO 03008KT 10SM SCT016 M19/M22 A2988 RMK AO2 FZRANO PNO $
KCIU 130156Z AUTO 03008KT 10SM BKN016 M18/M22 A2988 RMK AO2 SLP151 T11831217 FZRANO PNO $
KCIU 130139Z AUTO 03010KT 10SM FEW016 M18/M22 A2988 RMK AO2 FZRANO PNO $
KCIU 130056Z AUTO 03007KT 10SM OVC020 M18/M21 A2989 RMK AO2 SNE25 SLP153 T11781206 FZRANO PNO $
KCIU 130009Z AUTO 03005KT 10SM BKN020 M17/M20 A2990 RMK AO2 SNE2359 FZRANO PNO $
KCIU 122356Z AUTO 04006KT 9SM -SN FEW011 SCT020 M17/M19 A2989 RMK AO2 SNE07B47 SLP152 6//// T11671194 11128 21167 53008 FZRANO PNO $
KCIU 122315Z AUTO 01005KT 10SM FEW020 M16/M19 A2988 RMK AO2 SNE07 FZRANO PNO $
KCIU 122256Z AUTO 36006KT 9SM -SN BKN020 M16/M19 A2988 RMK AO2 SLP147 T11611189 FZRANO PNO $
KCIU 122156Z AUTO 02005KT 8SM -SN OVC022 M15/M18 A2987 RMK AO2 SLP146 T11501183 FZRANO PNO $
KCIU 122056Z AUTO 36009KT 7SM -SN BKN019 M14/M17 A2987 RMK AO2 SNE01B39 SLP143 6//// T11391172 55003 FZRANO PNO $
KCIU 121956Z AUTO 33017G22KT 5SM -SN OVC015 M13/M17 A2986 RMK AO2 SLP140 T11331167 FZRANO PNO $
KCIU 121928Z AUTO 36011KT 7SM -SN OVC015 M14/M17 A2986 RMK AO2 FZRANO PNO $
KCIU 121918Z AUTO 36009KT 1SM -SN OVC015 M14/M17 A2986 RMK AO2 VIS M1/4V5 FZRANO PNO $
KCIU 121856Z AUTO 35010KT 5SM -SN OVC015 M14/M18 A2987 RMK AO2 SNB46 SLP143 T11441178 FZRANO PNO $
KCIU 121756Z AUTO 34012G21KT 10SM BKN015 M15/M19 A2987 RMK AO2 SLP145 6//// T11501189 11144 21183 56007 FZRANO PNO $
KCIU 121656Z AUTO 34014G20KT 10SM CLR M15/M19 A2988 RMK AO2 SNB14E28 SLP145 T11501194 FZRANO PNO $
KCIU 121556Z AUTO 34017G20KT 10SM CLR M16/M21 A2989 RMK AO2 SNB23E36 SLP150 T11561206 FZRANO PNO $
KCIU 121456Z AUTO 36016G22KT 9SM CLR M17/M21 A2990 RMK AO2 SLP153 6//// T11671206 51013 FZRANO PNO $